sensor_id;sensor_type;location;lat;lon;timestamp;pressure;altitude;pressure_sealevel;temperature;humidity
52983;BME280;48698;45.736;13.926;2022-11-15T00:00:12;97912.13;;;6.95;100.00
52983;BME280;48698;45.736;13.926;2022-11-15T00:05:15;97888.13;;;6.76;100.00
52983;BME280;48698;45.736;13.926;2022-11-15T00:10:24;97954.53;;;7.16;100.00
52983;BME280;48698;45.736;13.926;2022-11-15T00:15:27;97905.09;;;6.67;100.00
52983;BME280;48698;45.736;13.926;2022-11-15T00:20:33;97872.84;;;6.86;100.00
52983;BME280;48698;45.736;13.926;2022-11-15T00:25:37;97950.56;;;7.29;100.00
52983;BME280;48698;45.736;13.926;2022-11-15T00:30:41;97903.09;;;7.02;100.00
52983;BME280;48698;45.736;13.926;2022-11-15T00:35:45;97887.16;;;6.79;100.00
52983;BME280;48698;45.736;13.926;2022-11-15T00:40:49;97761.50;;;5.93;100.00
52983;BME280;48698;45.736;13.926;2022-11-15T00:45:53;97878.06;;;6.87;100.00
52983;BME280;48698;45.736;13.926;2022-11-15T00:50:57;97919.84;;;7.27;100.00
52983;BME280;48698;45.736;13.926;2022-11-15T00:56:01;97872.53;;;6.95;100.00
52983;BME280;48698;45.736;13.926;2022-11-15T01:01:06;97915.19;;;7.09;100.00
52983;BME280;48698;45.736;13.926;2022-11-15T01:06:11;97757.22;;;6.16;100.00
52983;BME280;48698;45.736;13.926;2022-11-15T01:11:15;97859.56;;;6.87;100.00
52983;BME280;48698;45.736;13.926;2022-11-15T01:16:19;97860.22;;;6.94;100.00
52983;BME280;48698;45.736;13.926;2022-11-15T01:21:23;97820.94;;;6.58;100.00
52983;BME280;48698;45.736;13.926;2022-11-15T01:26:26;97869.03;;;6.66;100.00
52983;BME280;48698;45.736;13.926;2022-11-15T01:31:30;97868.16;;;6.94;100.00
52983;BME280;48698;45.736;13.926;2022-11-15T01:36:33;97863.97;;;6.87;100.00
52983;BME280;48698;45.736;13.926;2022-11-15T01:41:37;97826.97;;;6.62;100.00
52983;BME280;48698;45.736;13.926;2022-11-15T01:46:46;97804.66;;;6.46;100.00
52983;BME280;48698;45.736;13.926;2022-11-15T01:51:51;97844.53;;;6.63;100.00
52983;BME280;48698;45.736;13.926;2022-11-15T01:56:59;97708.97;;;5.87;100.00
52983;BME280;48698;45.736;13.926;2022-11-15T02:02:04;97886.94;;;6.85;100.00
52983;BME280;48698;45.736;13.926;2022-11-15T02:07:10;97818.31;;;6.58;100.00
52983;BME280;48698;45.736;13.926;2022-11-15T02:12:19;97853.81;;;6.76;100.00
52983;BME280;48698;45.736;13.926;2022-11-15T02:28:50;97872.06;;;6.54;100.00
52983;BME280;48698;45.736;13.926;2022-11-15T02:39:09;97799.72;;;6.35;100.00
52983;BME280;48698;45.736;13.926;2022-11-15T02:44:26;97849.44;;;6.47;100.00
52983;BME280;48698;45.736;13.926;2022-11-15T02:49:34;97797.06;;;6.07;100.00
52983;BME280;48698;45.736;13.926;2022-11-15T02:54:38;97820.50;;;6.16;100.00
52983;BME280;48698;45.736;13.926;2022-11-15T02:59:58;97792.38;;;6.17;100.00
52983;BME280;48698;45.736;13.926;2022-11-15T03:05:17;97850.09;;;6.82;100.00
52983;BME280;48698;45.736;13.926;2022-11-15T03:10:32;97818.50;;;6.79;100.00
52983;BME280;48698;45.736;13.926;2022-11-15T03:15:46;97716.53;;;6.25;100.00
52983;BME280;48698;45.736;13.926;2022-11-15T03:20:55;97859.78;;;7.07;100.00
52983;BME280;48698;45.736;13.926;2022-11-15T03:25:59;97845.69;;;7.07;100.00
52983;BME280;48698;45.736;13.926;2022-11-15T03:31:04;97841.63;;;7.23;100.00
52983;BME280;48698;45.736;13.926;2022-11-15T03:36:30;97790.38;;;6.78;100.00
52983;BME280;48698;45.736;13.926;2022-11-15T03:42:04;97851.81;;;7.09;100.00
52983;BME280;48698;45.736;13.926;2022-11-15T03:47:18;97708.91;;;6.16;100.00
52983;BME280;48698;45.736;13.926;2022-11-15T03:52:31;97826.13;;;6.88;100.00
52983;BME280;48698;45.736;13.926;2022-11-15T03:57:35;97828.88;;;6.85;100.00
52983;BME280;48698;45.736;13.926;2022-11-15T04:02:39;97769.69;;;6.65;100.00
52983;BME280;48698;45.736;13.926;2022-11-15T04:07:43;97783.47;;;6.73;100.00
52983;BME280;48698;45.736;13.926;2022-11-15T04:12:47;97834.47;;;7.00;100.00
52983;BME280;48698;45.736;13.926;2022-11-15T04:17:56;97821.50;;;6.94;100.00
52983;BME280;48698;45.736;13.926;2022-11-15T04:23:01;97759.25;;;6.36;100.00
52983;BME280;48698;45.736;13.926;2022-11-15T04:28:24;97809.59;;;6.83;100.00
52983;BME280;48698;45.736;13.926;2022-11-15T04:33:28;97750.47;;;6.36;100.00
52983;BME280;48698;45.736;13.926;2022-11-15T04:38:33;97703.75;;;6.13;100.00
52983;BME280;48698;45.736;13.926;2022-11-15T04:43:36;97643.94;;;5.87;100.00
52983;BME280;48698;45.736;13.926;2022-11-15T04:48:40;97821.63;;;6.90;100.00
52983;BME280;48698;45.736;13.926;2022-11-15T04:53:43;97671.38;;;6.08;100.00
52983;BME280;48698;45.736;13.926;2022-11-15T04:58:50;97752.16;;;6.63;100.00
52983;BME280;48698;45.736;13.926;2022-11-15T05:03:54;97788.34;;;6.86;100.00
52983;BME280;48698;45.736;13.926;2022-11-15T05:09:17;97700.16;;;6.40;100.00
52983;BME280;48698;45.736;13.926;2022-11-15T05:14:20;97633.28;;;6.16;100.00
52983;BME280;48698;45.736;13.926;2022-11-15T05:19:24;97813.78;;;7.13;100.00
52983;BME280;48698;45.736;13.926;2022-11-15T05:24:27;97747.84;;;6.60;100.00
52983;BME280;48698;45.736;13.926;2022-11-15T05:29:31;97741.56;;;6.64;100.00
52983;BME280;48698;45.736;13.926;2022-11-15T05:34:34;97723.81;;;6.43;100.00
52983;BME280;48698;45.736;13.926;2022-11-15T05:39:38;97778.34;;;6.95;100.00
52983;BME280;48698;45.736;13.926;2022-11-15T05:44:46;97734.56;;;6.63;100.00
52983;BME280;48698;45.736;13.926;2022-11-15T05:49:51;97717.19;;;6.56;100.00
52983;BME280;48698;45.736;13.926;2022-11-15T05:54:59;97776.06;;;6.85;100.00
52983;BME280;48698;45.736;13.926;2022-11-15T06:00:04;97824.91;;;7.22;100.00
52983;BME280;48698;45.736;13.926;2022-11-15T06:05:09;97825.00;;;7.19;100.00
52983;BME280;48698;45.736;13.926;2022-11-15T06:10:12;97759.78;;;6.97;100.00
52983;BME280;48698;45.736;13.926;2022-11-15T06:15:16;97720.03;;;6.76;100.00
52983;BME280;48698;45.736;13.926;2022-11-15T06:20:19;97756.63;;;6.87;100.00
52983;BME280;48698;45.736;13.926;2022-11-15T06:25:23;97785.78;;;7.09;100.00
52983;BME280;48698;45.736;13.926;2022-11-15T06:30:27;97773.72;;;7.02;100.00
52983;BME280;48698;45.736;13.926;2022-11-15T06:35:33;97803.50;;;7.30;100.00
52983;BME280;48698;45.736;13.926;2022-11-15T06:40:38;97849.19;;;7.58;100.00
52983;BME280;48698;45.736;13.926;2022-11-15T06:45:41;97779.63;;;7.08;100.00
52983;BME280;48698;45.736;13.926;2022-11-15T06:50:55;97800.41;;;7.19;100.00
52983;BME280;48698;45.736;13.926;2022-11-15T06:56:01;97768.56;;;6.72;100.00
52983;BME280;48698;45.736;13.926;2022-11-15T07:01:09;97742.69;;;6.57;100.00
52983;BME280;48698;45.736;13.926;2022-11-15T07:06:13;97806.47;;;7.21;100.00
52983;BME280;48698;45.736;13.926;2022-11-15T07:11:16;97854.47;;;7.58;100.00
52983;BME280;48698;45.736;13.926;2022-11-15T07:16:20;97761.63;;;6.95;100.00
52983;BME280;48698;45.736;13.926;2022-11-15T07:21:24;97791.59;;;7.18;100.00
52983;BME280;48698;45.736;13.926;2022-11-15T07:26:29;97789.91;;;7.41;100.00
52983;BME280;48698;45.736;13.926;2022-11-15T07:31:33;97739.19;;;7.31;100.00
52983;BME280;48698;45.736;13.926;2022-11-15T07:36:36;97681.56;;;6.94;100.00
52983;BME280;48698;45.736;13.926;2022-11-15T07:41:40;97662.47;;;7.11;100.00
52983;BME280;48698;45.736;13.926;2022-11-15T07:46:44;97674.63;;;6.92;100.00
52983;BME280;48698;45.736;13.926;2022-11-15T07:51:47;97817.25;;;7.88;100.00
52983;BME280;48698;45.736;13.926;2022-11-15T07:56:51;97697.81;;;7.07;100.00
52983;BME280;48698;45.736;13.926;2022-11-15T08:01:55;97849.41;;;7.99;100.00
52983;BME280;48698;45.736;13.926;2022-11-15T08:06:58;97634.31;;;6.87;100.00
52983;BME280;48698;45.736;13.926;2022-11-15T08:12:02;97659.06;;;7.31;100.00
52983;BME280;48698;45.736;13.926;2022-11-15T08:17:06;97806.22;;;8.45;100.00
52983;BME280;48698;45.736;13.926;2022-11-15T08:22:10;97769.09;;;8.46;100.00
52983;BME280;48698;45.736;13.926;2022-11-15T08:27:14;97713.44;;;8.26;100.00
52983;BME280;48698;45.736;13.926;2022-11-15T08:32:20;97768.25;;;8.88;100.00
52983;BME280;48698;45.736;13.926;2022-11-15T08:37:24;97829.19;;;9.48;100.00
52983;BME280;48698;45.736;13.926;2022-11-15T08:42:28;97736.19;;;9.34;100.00
52983;BME280;48698;45.736;13.926;2022-11-15T08:47:32;97792.00;;;9.88;100.00
52983;BME280;48698;45.736;13.926;2022-11-15T08:52:35;97713.63;;;9.63;100.00
52983;BME280;48698;45.736;13.926;2022-11-15T08:57:39;97657.44;;;9.36;100.00
52983;BME280;48698;45.736;13.926;2022-11-15T09:02:43;97657.25;;;9.59;100.00
52983;BME280;48698;45.736;13.926;2022-11-15T09:07:52;97733.00;;;10.21;100.00
52983;BME280;48698;45.736;13.926;2022-11-15T09:12:57;97619.53;;;9.71;100.00
52983;BME280;48698;45.736;13.926;2022-11-15T09:18:00;97707.41;;;10.73;100.00
52983;BME280;48698;45.736;13.926;2022-11-15T09:23:05;97673.75;;;10.73;100.00
52983;BME280;48698;45.736;13.926;2022-11-15T09:28:08;97700.91;;;10.78;100.00
52983;BME280;48698;45.736;13.926;2022-11-15T09:33:29;97632.00;;;10.41;100.00
52983;BME280;48698;45.736;13.926;2022-11-15T09:38:34;97710.78;;;10.94;100.00
52983;BME280;48698;45.736;13.926;2022-11-15T09:48:59;97784.84;;;11.84;100.00
52983;BME280;48698;45.736;13.926;2022-11-15T10:00:22;97748.81;;;12.10;100.00
52983;BME280;48698;45.736;13.926;2022-11-15T10:05:42;97758.13;;;12.18;100.00
52983;BME280;48698;45.736;13.926;2022-11-15T10:10:58;97622.72;;;11.17;100.00
52983;BME280;48698;45.736;13.926;2022-11-15T10:26:57;97640.13;;;12.18;100.00
52983;BME280;48698;45.736;13.926;2022-11-15T10:32:00;97478.13;;;10.88;100.00
52983;BME280;48698;45.736;13.926;2022-11-15T10:37:04;97638.78;;;11.79;100.00
52983;BME280;48698;45.736;13.926;2022-11-15T10:42:28;97707.09;;;12.10;100.00
52983;BME280;48698;45.736;13.926;2022-11-15T10:47:32;97616.06;;;11.41;100.00
52983;BME280;48698;45.736;13.926;2022-11-15T10:52:50;97693.44;;;11.85;100.00
52983;BME280;48698;45.736;13.926;2022-11-15T11:03:35;97689.59;;;12.06;100.00
52983;BME280;48698;45.736;13.926;2022-11-15T11:08:54;97424.34;;;10.52;100.00
52983;BME280;48698;45.736;13.926;2022-11-15T11:14:11;97468.81;;;10.97;100.00
52983;BME280;48698;45.736;13.926;2022-11-15T11:19:34;97663.31;;;12.00;100.00
52983;BME280;48698;45.736;13.926;2022-11-15T11:30:21;97648.06;;;12.49;100.00
52983;BME280;48698;45.736;13.926;2022-11-15T11:51:27;97615.59;;;13.01;100.00
52983;BME280;48698;45.736;13.926;2022-11-15T11:56:37;97593.34;;;13.16;100.00
52983;BME280;48698;45.736;13.926;2022-11-15T12:01:43;97607.41;;;12.89;100.00
52983;BME280;48698;45.736;13.926;2022-11-15T12:06:55;97554.00;;;12.91;100.00
52983;BME280;48698;45.736;13.926;2022-11-15T12:12:23;97584.75;;;12.82;100.00
52983;BME280;48698;45.736;13.926;2022-11-15T12:17:29;97484.66;;;11.90;100.00
52983;BME280;48698;45.736;13.926;2022-11-15T12:22:42;97498.84;;;11.91;100.00
52983;BME280;48698;45.736;13.926;2022-11-15T12:27:52;97528.34;;;12.02;100.00
52983;BME280;48698;45.736;13.926;2022-11-15T12:32:59;97580.25;;;12.69;100.00
52983;BME280;48698;45.736;13.926;2022-11-15T12:38:04;97570.44;;;12.55;100.00
52983;BME280;48698;45.736;13.926;2022-11-15T12:58:43;97566.97;;;11.93;100.00
52983;BME280;48698;45.736;13.926;2022-11-15T13:14:49;97559.59;;;11.67;100.00
52983;BME280;48698;45.736;13.926;2022-11-15T13:25:02;97423.44;;;10.84;100.00
52983;BME280;48698;45.736;13.926;2022-11-15T13:30:14;97441.03;;;10.86;100.00
52983;BME280;48698;45.736;13.926;2022-11-15T13:35:28;97441.63;;;10.60;100.00
52983;BME280;48698;45.736;13.926;2022-11-15T13:40:36;97549.47;;;11.27;100.00
52983;BME280;48698;45.736;13.926;2022-11-15T13:45:40;97557.94;;;11.02;100.00
52983;BME280;48698;45.736;13.926;2022-11-15T13:50:54;97540.56;;;11.12;100.00
52983;BME280;48698;45.736;13.926;2022-11-15T13:55:58;97441.75;;;10.57;100.00
52983;BME280;48698;45.736;13.926;2022-11-15T14:01:04;97545.47;;;11.20;100.00
52983;BME280;48698;45.736;13.926;2022-11-15T14:06:11;97552.91;;;11.13;100.00
52983;BME280;48698;45.736;13.926;2022-11-15T14:11:18;97386.47;;;10.17;100.00
52983;BME280;48698;45.736;13.926;2022-11-15T14:16:34;97484.28;;;10.73;100.00
52983;BME280;48698;45.736;13.926;2022-11-15T14:22:12;97531.72;;;11.12;100.00
52983;BME280;48698;45.736;13.926;2022-11-15T14:27:23;97520.75;;;11.18;100.00
52983;BME280;48698;45.736;13.926;2022-11-15T14:32:29;97419.56;;;10.43;100.00
52983;BME280;48698;45.736;13.926;2022-11-15T14:37:33;97332.59;;;9.65;100.00
52983;BME280;48698;45.736;13.926;2022-11-15T14:42:38;97415.47;;;10.20;100.00
52983;BME280;48698;45.736;13.926;2022-11-15T14:47:42;97516.84;;;10.76;100.00
52983;BME280;48698;45.736;13.926;2022-11-15T14:52:47;97360.63;;;9.70;100.00
52983;BME280;48698;45.736;13.926;2022-11-15T14:57:51;97489.88;;;10.51;100.00
52983;BME280;48698;45.736;13.926;2022-11-15T15:02:56;97396.75;;;9.88;100.00
52983;BME280;48698;45.736;13.926;2022-11-15T15:08:00;97498.72;;;10.52;100.00
52983;BME280;48698;45.736;13.926;2022-11-15T15:13:08;97303.88;;;9.23;100.00
52983;BME280;48698;45.736;13.926;2022-11-15T15:18:14;97451.22;;;10.13;100.00
52983;BME280;48698;45.736;13.926;2022-11-15T15:23:19;97513.00;;;10.49;100.00
52983;BME280;48698;45.736;13.926;2022-11-15T15:28:23;97448.78;;;10.08;100.00
52983;BME280;48698;45.736;13.926;2022-11-15T15:33:34;97424.25;;;9.88;100.00
52983;BME280;48698;45.736;13.926;2022-11-15T15:38:38;97389.94;;;9.50;100.00
52983;BME280;48698;45.736;13.926;2022-11-15T15:43:43;97490.69;;;10.36;100.00
52983;BME280;48698;45.736;13.926;2022-11-15T15:48:47;97486.41;;;10.33;100.00
52983;BME280;48698;45.736;13.926;2022-11-15T15:53:51;97441.38;;;9.98;100.00
52983;BME280;48698;45.736;13.926;2022-11-15T15:59:00;97443.59;;;9.90;100.00
52983;BME280;48698;45.736;13.926;2022-11-15T16:04:03;97462.84;;;10.10;100.00
52983;BME280;48698;45.736;13.926;2022-11-15T16:09:08;97447.16;;;10.06;100.00
52983;BME280;48698;45.736;13.926;2022-11-15T16:14:17;97338.81;;;9.31;100.00
52983;BME280;48698;45.736;13.926;2022-11-15T16:19:21;97357.97;;;9.70;100.00
52983;BME280;48698;45.736;13.926;2022-11-15T16:24:24;97443.19;;;10.14;100.00
52983;BME280;48698;45.736;13.926;2022-11-15T16:29:28;97415.16;;;9.92;100.00
52983;BME280;48698;45.736;13.926;2022-11-15T16:34:31;97373.50;;;9.61;100.00
52983;BME280;48698;45.736;13.926;2022-11-15T16:39:42;97377.22;;;9.57;100.00
52983;BME280;48698;45.736;13.926;2022-11-15T16:44:45;97358.44;;;9.44;100.00
52983;BME280;48698;45.736;13.926;2022-11-15T16:49:49;97396.00;;;9.69;100.00
52983;BME280;48698;45.736;13.926;2022-11-15T16:54:53;97347.69;;;9.47;100.00
52983;BME280;48698;45.736;13.926;2022-11-15T16:59:56;97312.53;;;9.09;100.00
52983;BME280;48698;45.736;13.926;2022-11-15T17:05:00;97459.56;;;10.05;100.00
52983;BME280;48698;45.736;13.926;2022-11-15T17:10:12;97362.03;;;9.43;100.00
52983;BME280;48698;45.736;13.926;2022-11-15T17:15:16;97278.84;;;8.77;100.00
52983;BME280;48698;45.736;13.926;2022-11-15T17:20:24;97407.69;;;9.65;100.00
52983;BME280;48698;45.736;13.926;2022-11-15T17:25:27;97404.81;;;9.70;100.00
52983;BME280;48698;45.736;13.926;2022-11-15T17:30:31;97433.91;;;9.88;100.00
52983;BME280;48698;45.736;13.926;2022-11-15T17:35:34;97467.06;;;9.97;100.00
52983;BME280;48698;45.736;13.926;2022-11-15T17:40:38;97389.13;;;9.65;100.00
52983;BME280;48698;45.736;13.926;2022-11-15T17:45:42;97458.72;;;9.88;100.00
52983;BME280;48698;45.736;13.926;2022-11-15T17:51:06;97445.16;;;9.94;100.00
52983;BME280;48698;45.736;13.926;2022-11-15T17:56:15;97299.81;;;8.99;100.00
52983;BME280;48698;45.736;13.926;2022-11-15T18:01:31;97433.47;;;9.80;100.00
52983;BME280;48698;45.736;13.926;2022-11-15T18:06:35;97376.69;;;9.33;100.00
52983;BME280;48698;45.736;13.926;2022-11-15T18:11:40;97346.75;;;9.14;100.00
52983;BME280;48698;45.736;13.926;2022-11-15T18:16:45;97447.16;;;9.88;100.00
52983;BME280;48698;45.736;13.926;2022-11-15T18:21:48;97213.88;;;8.53;100.00
52983;BME280;48698;45.736;13.926;2022-11-15T18:26:59;97386.66;;;9.45;100.00
52983;BME280;48698;45.736;13.926;2022-11-15T18:32:04;97280.03;;;9.06;100.00
52983;BME280;48698;45.736;13.926;2022-11-15T18:37:13;97313.06;;;9.16;100.00
52983;BME280;48698;45.736;13.926;2022-11-15T18:42:17;97329.34;;;9.25;100.00
52983;BME280;48698;45.736;13.926;2022-11-15T18:47:20;97338.78;;;9.48;100.00
52983;BME280;48698;45.736;13.926;2022-11-15T18:52:24;97357.25;;;9.67;100.00
52983;BME280;48698;45.736;13.926;2022-11-15T18:57:27;97182.22;;;8.51;100.00
52983;BME280;48698;45.736;13.926;2022-11-15T19:02:31;97365.66;;;9.75;100.00
52983;BME280;48698;45.736;13.926;2022-11-15T19:07:34;97385.38;;;9.86;100.00
52983;BME280;48698;45.736;13.926;2022-11-15T19:12:39;97378.72;;;9.95;100.00
52983;BME280;48698;45.736;13.926;2022-11-15T19:17:43;97380.53;;;9.95;100.00
52983;BME280;48698;45.736;13.926;2022-11-15T19:22:46;97362.63;;;9.82;100.00
52983;BME280;48698;45.736;13.926;2022-11-15T19:27:50;97243.09;;;9.03;100.00
52983;BME280;48698;45.736;13.926;2022-11-15T19:32:53;97271.59;;;9.49;100.00
52983;BME280;48698;45.736;13.926;2022-11-15T19:37:58;97329.84;;;9.83;100.00
52983;BME280;48698;45.736;13.926;2022-11-15T19:43:01;97108.13;;;8.51;100.00
52983;BME280;48698;45.736;13.926;2022-11-15T19:48:05;97348.09;;;9.90;100.00
52983;BME280;48698;45.736;13.926;2022-11-15T19:53:09;97279.31;;;9.54;100.00
52983;BME280;48698;45.736;13.926;2022-11-15T19:58:12;97161.72;;;8.89;100.00
52983;BME280;48698;45.736;13.926;2022-11-15T20:03:17;97349.63;;;10.11;100.00
52983;BME280;48698;45.736;13.926;2022-11-15T20:08:21;97266.75;;;9.57;100.00
52983;BME280;48698;45.736;13.926;2022-11-15T20:13:25;97292.59;;;9.69;100.00
52983;BME280;48698;45.736;13.926;2022-11-15T20:18:28;97343.47;;;9.93;100.00
52983;BME280;48698;45.736;13.926;2022-11-15T20:23:32;97234.66;;;9.29;100.00
52983;BME280;48698;45.736;13.926;2022-11-15T20:28:37;97343.44;;;9.77;100.00
52983;BME280;48698;45.736;13.926;2022-11-15T20:33:42;97338.69;;;9.84;100.00
52983;BME280;48698;45.736;13.926;2022-11-15T20:38:45;97100.63;;;8.42;100.00
52983;BME280;48698;45.736;13.926;2022-11-15T20:43:49;97335.22;;;9.82;100.00
52983;BME280;48698;45.736;13.926;2022-11-15T20:48:53;97171.94;;;8.97;100.00
52983;BME280;48698;45.736;13.926;2022-11-15T20:53:57;97330.91;;;9.97;100.00
52983;BME280;48698;45.736;13.926;2022-11-15T20:59:01;97247.53;;;9.37;100.00
52983;BME280;48698;45.736;13.926;2022-11-15T21:04:04;97278.03;;;9.61;100.00
52983;BME280;48698;45.736;13.926;2022-11-15T21:09:08;97273.00;;;9.72;100.00
52983;BME280;48698;45.736;13.926;2022-11-15T21:14:30;97282.75;;;9.71;100.00
52983;BME280;48698;45.736;13.926;2022-11-15T21:19:34;97079.03;;;8.51;100.00
52983;BME280;48698;45.736;13.926;2022-11-15T21:24:38;97007.09;;;8.26;100.00
52983;BME280;48698;45.736;13.926;2022-11-15T21:29:42;97108.94;;;8.69;100.00
52983;BME280;48698;45.736;13.926;2022-11-15T21:34:48;97098.72;;;8.78;100.00
52983;BME280;48698;45.736;13.926;2022-11-15T21:39:51;97089.56;;;8.68;100.00
52983;BME280;48698;45.736;13.926;2022-11-15T21:44:55;97099.47;;;8.65;100.00
52983;BME280;48698;45.736;13.926;2022-11-15T21:49:58;97212.19;;;9.53;100.00
52983;BME280;48698;45.736;13.926;2022-11-15T21:55:03;97179.22;;;9.09;100.00
52983;BME280;48698;45.736;13.926;2022-11-15T22:00:07;97198.13;;;9.18;100.00
52983;BME280;48698;45.736;13.926;2022-11-15T22:05:29;97179.28;;;9.24;100.00
52983;BME280;48698;45.736;13.926;2022-11-15T22:10:33;97177.34;;;9.44;100.00
52983;BME280;48698;45.736;13.926;2022-11-15T22:15:36;97225.56;;;9.67;100.00
52983;BME280;48698;45.736;13.926;2022-11-15T22:20:40;97196.09;;;9.56;100.00
52983;BME280;48698;45.736;13.926;2022-11-15T22:25:47;97185.84;;;9.50;100.00
52983;BME280;48698;45.736;13.926;2022-11-15T22:30:52;97164.63;;;9.50;100.00
52983;BME280;48698;45.736;13.926;2022-11-15T22:35:57;97202.81;;;9.79;100.00
52983;BME280;48698;45.736;13.926;2022-11-15T22:41:01;97024.75;;;8.75;100.00
52983;BME280;48698;45.736;13.926;2022-11-15T22:46:05;97037.13;;;9.08;100.00
52983;BME280;48698;45.736;13.926;2022-11-15T22:51:18;97152.84;;;9.71;100.00
52983;BME280;48698;45.736;13.926;2022-11-15T22:56:22;97148.72;;;9.66;100.00
52983;BME280;48698;45.736;13.926;2022-11-15T23:01:25;96998.91;;;8.65;100.00
52983;BME280;48698;45.736;13.926;2022-11-15T23:06:29;97114.09;;;9.53;100.00
52983;BME280;48698;45.736;13.926;2022-11-15T23:11:33;97061.56;;;9.13;100.00
52983;BME280;48698;45.736;13.926;2022-11-15T23:16:55;97074.47;;;9.19;100.00
52983;BME280;48698;45.736;13.926;2022-11-15T23:21:59;97108.09;;;9.34;100.00
52983;BME280;48698;45.736;13.926;2022-11-15T23:27:21;97120.16;;;9.40;100.00
52983;BME280;48698;45.736;13.926;2022-11-15T23:32:26;97097.22;;;9.39;100.00
52983;BME280;48698;45.736;13.926;2022-11-15T23:37:55;97015.16;;;9.06;100.00
52983;BME280;48698;45.736;13.926;2022-11-15T23:42:59;97013.25;;;8.92;100.00
52983;BME280;48698;45.736;13.926;2022-11-15T23:48:03;97048.16;;;9.31;100.00
52983;BME280;48698;45.736;13.926;2022-11-15T23:53:08;97045.72;;;9.44;100.00
52983;BME280;48698;45.736;13.926;2022-11-15T23:58:12;97002.38;;;9.14;100.00
